sensor_id;sensor_type;location;lat;lon;timestamp;P1;durP1;ratioP1;P2;durP2;ratioP2
21589;SDS011;10957;50.968;6.828;2023-01-15T00:00:14;3.40;;;3.30;;
21589;SDS011;10957;50.968;6.828;2023-01-15T00:05:15;3.10;;;3.00;;
21589;SDS011;10957;50.968;6.828;2023-01-15T00:10:16;3.10;;;3.00;;
21589;SDS011;10957;50.968;6.828;2023-01-15T00:15:18;2.95;;;2.85;;
21589;SDS011;10957;50.968;6.828;2023-01-15T00:20:19;3.35;;;3.25;;
21589;SDS011;10957;50.968;6.828;2023-01-15T00:25:21;2.80;;;2.70;;
21589;SDS011;10957;50.968;6.828;2023-01-15T00:30:41;2.80;;;2.70;;
21589;SDS011;10957;50.968;6.828;2023-01-15T00:35:42;2.97;;;2.88;;
21589;SDS011;10957;50.968;6.828;2023-01-15T00:40:44;2.92;;;2.83;;
21589;SDS011;10957;50.968;6.828;2023-01-15T00:45:45;3.30;;;3.20;;
21589;SDS011;10957;50.968;6.828;2023-01-15T00:50:47;3.25;;;3.15;;
21589;SDS011;10957;50.968;6.828;2023-01-15T00:55:48;3.25;;;3.15;;
21589;SDS011;10957;50.968;6.828;2023-01-15T01:00:53;2.88;;;2.78;;
21589;SDS011;10957;50.968;6.828;2023-01-15T01:05:59;2.88;;;2.78;;
21589;SDS011;10957;50.968;6.828;2023-01-15T01:21:37;3.00;;;2.90;;
21589;SDS011;10957;50.968;6.828;2023-01-15T01:26:40;3.10;;;3.00;;
21589;SDS011;10957;50.968;6.828;2023-01-15T01:31:44;3.10;;;3.00;;
21589;SDS011;10957;50.968;6.828;2023-01-15T01:36:45;3.20;;;3.10;;
21589;SDS011;10957;50.968;6.828;2023-01-15T01:41:46;3.20;;;3.10;;
21589;SDS011;10957;50.968;6.828;2023-01-15T01:46:49;3.40;;;3.30;;
21589;SDS011;10957;50.968;6.828;2023-01-15T01:52:13;3.30;;;3.20;;
21589;SDS011;10957;50.968;6.828;2023-01-15T01:57:18;3.40;;;3.30;;
21589;SDS011;10957;50.968;6.828;2023-01-15T02:02:21;3.10;;;3.00;;
21589;SDS011;10957;50.968;6.828;2023-01-15T02:07:23;3.20;;;3.10;;
21589;SDS011;10957;50.968;6.828;2023-01-15T02:12:34;3.20;;;3.10;;
21589;SDS011;10957;50.968;6.828;2023-01-15T02:17:48;4.78;;;4.57;;
21589;SDS011;10957;50.968;6.828;2023-01-15T02:28:45;3.60;;;3.50;;
21589;SDS011;10957;50.968;6.828;2023-01-15T02:33:51;3.60;;;3.50;;
21589;SDS011;10957;50.968;6.828;2023-01-15T02:39:05;3.60;;;3.50;;
21589;SDS011;10957;50.968;6.828;2023-01-15T02:44:09;3.40;;;3.30;;
21589;SDS011;10957;50.968;6.828;2023-01-15T02:49:18;3.30;;;3.20;;
21589;SDS011;10957;50.968;6.828;2023-01-15T02:54:22;3.40;;;3.30;;
21589;SDS011;10957;50.968;6.828;2023-01-15T02:59:46;3.70;;;3.60;;
21589;SDS011;10957;50.968;6.828;2023-01-15T03:10:29;3.30;;;3.20;;
21589;SDS011;10957;50.968;6.828;2023-01-15T03:27:14;4.13;;;3.93;;
21589;SDS011;10957;50.968;6.828;2023-01-15T03:32:20;4.40;;;4.20;;
21589;SDS011;10957;50.968;6.828;2023-01-15T03:37:23;4.40;;;4.20;;
21589;SDS011;10957;50.968;6.828;2023-01-15T03:42:32;4.70;;;4.50;;
21589;SDS011;10957;50.968;6.828;2023-01-15T03:53:49;4.50;;;4.30;;
21589;SDS011;10957;50.968;6.828;2023-01-15T04:04:26;4.28;;;4.07;;
21589;SDS011;10957;50.968;6.828;2023-01-15T04:09:30;4.80;;;4.32;;
21589;SDS011;10957;50.968;6.828;2023-01-15T04:14:33;4.40;;;4.20;;
21589;SDS011;10957;50.968;6.828;2023-01-15T04:19:40;4.60;;;4.40;;
21589;SDS011;10957;50.968;6.828;2023-01-15T04:24:44;4.50;;;4.30;;
21589;SDS011;10957;50.968;6.828;2023-01-15T04:29:45;4.40;;;4.20;;
21589;SDS011;10957;50.968;6.828;2023-01-15T04:34:46;4.07;;;3.87;;
21589;SDS011;10957;50.968;6.828;2023-01-15T04:39:47;4.10;;;3.90;;
21589;SDS011;10957;50.968;6.828;2023-01-15T04:44:48;3.72;;;3.63;;
21589;SDS011;10957;50.968;6.828;2023-01-15T04:49:50;3.72;;;3.63;;
21589;SDS011;10957;50.968;6.828;2023-01-15T04:54:53;3.50;;;3.40;;
21589;SDS011;10957;50.968;6.828;2023-01-15T04:59:54;3.60;;;3.50;;
21589;SDS011;10957;50.968;6.828;2023-01-15T05:04:55;4.30;;;4.10;;
21589;SDS011;10957;50.968;6.828;2023-01-15T05:09:57;4.13;;;3.92;;
21589;SDS011;10957;50.968;6.828;2023-01-15T05:14:58;4.10;;;3.90;;
21589;SDS011;10957;50.968;6.828;2023-01-15T05:19:59;4.22;;;4.03;;
21589;SDS011;10957;50.968;6.828;2023-01-15T05:25:01;4.50;;;4.30;;
21589;SDS011;10957;50.968;6.828;2023-01-15T05:30:02;4.40;;;4.20;;
21589;SDS011;10957;50.968;6.828;2023-01-15T05:35:03;4.22;;;4.03;;
21589;SDS011;10957;50.968;6.828;2023-01-15T05:40:05;4.40;;;4.20;;
21589;SDS011;10957;50.968;6.828;2023-01-15T05:45:07;4.50;;;4.30;;
21589;SDS011;10957;50.968;6.828;2023-01-15T05:50:09;4.40;;;4.20;;
21589;SDS011;10957;50.968;6.828;2023-01-15T05:55:11;4.90;;;4.70;;
21589;SDS011;10957;50.968;6.828;2023-01-15T06:00:12;4.70;;;4.50;;
21589;SDS011;10957;50.968;6.828;2023-01-15T06:05:14;16.67;;;4.90;;
21589;SDS011;10957;50.968;6.828;2023-01-15T06:10:19;4.90;;;4.70;;
21589;SDS011;10957;50.968;6.828;2023-01-15T06:15:20;4.80;;;4.60;;
21589;SDS011;10957;50.968;6.828;2023-01-15T06:20:21;4.70;;;4.50;;
